Bulk Malaysia — 3FUV9 — position and weather

sailwx.info

Track history (hours):
 
Tides and Currents Weather Stations Pressure Air Temp Water Temp Dewpoint Dewpoint Depression Visibility Wind Speed Wind Dir Waves Ship Positions

Bulk Malaysia

Last reported at 2018-Aug-16 15:38 UTC. Time now 2018-Aug-19 22:51 UTC.
Position N 09°11' W 079°52'.

Length 235 m; draft 14.3 m.

Type: Cargo ship. MMSI: 371265000.

Date/timePositionNaut miles runAvg speedWind from/ knotsBaromVisibWave heightAir tempDewpointWater temp
2018-Aug-16 15:38N 09°11' W 079°52'4 8.7
2018-Aug-16 15:14N 09°13' W 079°55'1 6.0
2018-Aug-16 15:00N 09°14' W 079°55'2 3.1
2018-Aug-16 14:28N 09°15' W 079°54'0 0.0
2018-Aug-16 04:08N 09°15' W 079°54'0 1.6
2018-Aug-16 03:50N 09°16' W 079°55'0 1.0
2018-Aug-16 03:29N 09°16' W 079°55'0 0.5
2018-Aug-16 03:00N 09°16' W 079°55'0 0.3
2018-Aug-16 02:30N 09°16' W 079°55'0 0.2
2018-Aug-16 02:00N 09°17' W 079°55'0 0.7
2018-Aug-16 01:27N 09°17' W 079°55'1 2.6
2018-Aug-16 01:00N 09°18' W 079°55'2 4.6
2018-Aug-16 00:30N 09°20' W 079°55'3 6.1
2018-Aug-16 00:01N 09°23' W 079°55'3 5.5
2018-Aug-15 23:30N 09°26' W 079°56'0 0.1
2018-Aug-15 22:58N 09°26' W 079°56'0 0.0
2018-Aug-15 22:28N 09°26' W 079°56'0 0.0
2018-Aug-15 21:58N 09°26' W 079°56'0 0.0
2018-Aug-15 21:28N 09°26' W 079°56'0 0.0
2018-Aug-15 20:58N 09°26' W 079°56'0 0.0
2018-Aug-15 20:28N 09°26' W 079°56'0 0.0
2018-Aug-15 19:55N 09°26' W 079°56'0 0.1
2018-Aug-15 19:28N 09°26' W 079°56'0 0.3
2018-Aug-15 18:59N 09°26' W 079°56'1 1.8
2018-Aug-15 18:30N 09°27' W 079°55'3 4.1
2018-Aug-15 17:54N 09°29' W 079°54'  
2018-Aug-08 14:17N 37°23' W 076°05'4 9.2
2018-Aug-08 13:48N 37°28' W 076°04'4 9.2
2018-Aug-08 13:24N 37°31' W 076°03'6 8.8
2018-Aug-08 12:42N 37°37' W 076°06'2 9.7
2018-Aug-08 12:30N 37°38' W 076°07'5 9.8
2018-Aug-08 12:00N 37°42' W 076°11'510.4
2018-Aug-08 11:30N 37°47' W 076°11'611.4
2018-Aug-08 11:00N 37°53' W 076°10'611.0
2018-Aug-08 10:30N 37°58' W 076°11'611.3
2018-Aug-08 10:00N 38°04' W 076°13'611.8
2018-Aug-08 09:30N 38°09' W 076°14'611.7
2018-Aug-08 09:00N 38°15' W 076°16'611.8
2018-Aug-08 08:30N 38°21' W 076°19'611.6
2018-Aug-08 08:00N 38°26' W 076°22'611.2
2018-Aug-08 07:30N 38°31' W 076°25'510.3
2018-Aug-08 07:00N 38°36' W 076°26'510.5
2018-Aug-08 06:30N 38°41' W 076°25'510.2
2018-Aug-08 06:00N 38°46' W 076°26'510.3
2018-Aug-08 05:30N 38°51' W 076°24'510.1
2018-Aug-08 05:00N 38°56' W 076°23'4 8.3
2018-Aug-08 04:31N 39°01' W 076°23'4 7.8
2018-Aug-08 04:00N 39°04' W 076°24'4 7.9
2018-Aug-08 03:30N 39°08' W 076°24'4 8.1
2018-Aug-08 03:01N 39°11' W 076°28'4 8.0
2018-Aug-08 02:31N 39°13' W 076°32'2 4.6
2018-Aug-08 02:00N 39°15' W 076°34'0 0.5
2018-Aug-08 01:29N 39°15' W 076°34'0 0.0
2018-Aug-08 00:56N 39°15' W 076°34'0 0.0
2018-Aug-08 00:29N 39°15' W 076°34'0 0.0
2018-Aug-07 23:59N 39°15' W 076°34'0 0.0
2018-Aug-07 23:29N 39°15' W 076°34'0 0.0
2018-Aug-07 22:59N 39°15' W 076°34'0 0.0
2018-Aug-07 22:29N 39°15' W 076°34'0 0.0
2018-Aug-07 21:59N 39°15' W 076°34'0 0.0
2018-Aug-07 21:29N 39°15' W 076°34'0 0.0
2018-Aug-07 20:59N 39°15' W 076°34'0 0.0
2018-Aug-07 20:29N 39°15' W 076°34'0 0.0
2018-Aug-07 19:59N 39°15' W 076°34'0 0.0
2018-Aug-07 19:29N 39°15' W 076°34'0 0.0
2018-Aug-07 18:59N 39°15' W 076°34'0 0.0
2018-Aug-07 18:29N 39°15' W 076°34'0 0.0
2018-Aug-07 17:59N 39°15' W 076°34'0 0.0
2018-Aug-07 17:29N 39°15' W 076°34'0 0.0
2018-Aug-07 16:59N 39°15' W 076°34'0 0.0
2018-Aug-07 16:29N 39°15' W 076°34'0 0.0
2018-Aug-07 15:59N 39°15' W 076°34'0 0.0
2018-Aug-07 15:29N 39°15' W 076°34'0 0.0
2018-Aug-07 14:59N 39°15' W 076°34'0 0.0
2018-Aug-07 14:29N 39°15' W 076°34'0 0.0
2018-Aug-07 13:59N 39°15' W 076°34'0 0.0
2018-Aug-07 13:29N 39°15' W 076°34'0 0.0
2018-Aug-07 12:59N 39°15' W 076°34'0 0.0
2018-Aug-07 12:29N 39°15' W 076°34'0 0.0
2018-Aug-07 11:59N 39°15' W 076°34'0 0.0
2018-Aug-07 11:29N 39°15' W 076°34'0 0.0
2018-Aug-07 10:59N 39°15' W 076°34'0 0.0
2018-Aug-07 10:29N 39°15' W 076°34'0 0.0
2018-Aug-07 09:59N 39°15' W 076°34'0 0.0
2018-Aug-07 09:29N 39°15' W 076°34'0 0.0
2018-Aug-07 08:59N 39°15' W 076°34'0 0.0
2018-Aug-07 08:29N 39°15' W 076°34'0 0.0
2018-Aug-07 07:59N 39°15' W 076°34'0 0.0
2018-Aug-07 07:29N 39°15' W 076°34'0 0.0
2018-Aug-07 06:59N 39°15' W 076°34'0 0.0
2018-Aug-07 06:29N 39°15' W 076°34'0 0.0
2018-Aug-07 05:59N 39°15' W 076°34'0 0.0
2018-Aug-07 05:29N 39°15' W 076°34'0 0.0
2018-Aug-07 04:59N 39°15' W 076°34'0 0.0
2018-Aug-07 04:29N 39°15' W 076°34'0 0.0
2018-Aug-07 03:59N 39°15' W 076°34'0 0.0
2018-Aug-07 03:29N 39°15' W 076°34'0 0.0
2018-Aug-07 02:59N 39°15' W 076°34'0 0.0
2018-Aug-07 02:29N 39°15' W 076°34'0 0.0
2018-Aug-07 01:59N 39°15' W 076°34'0 0.0
2018-Aug-07 01:29N 39°15' W 076°34'0 0.0
2018-Aug-07 00:59N 39°15' W 076°34'0 0.0
2018-Aug-07 00:29N 39°15' W 076°34'0 0.0
2018-Aug-06 23:59N 39°15' W 076°34'0 0.0
2018-Aug-06 23:29N 39°15' W 076°34'0 0.0
2018-Aug-06 22:59N 39°15' W 076°34'0 0.0
2018-Aug-06 22:29N 39°15' W 076°34'0 0.0
2018-Aug-06 21:59N 39°15' W 076°34'0 0.0
2018-Aug-06 21:29N 39°15' W 076°34'0 0.0
2018-Aug-06 20:59N 39°15' W 076°34'0 0.0
2018-Aug-06 20:29N 39°15' W 076°34'0 0.0
2018-Aug-06 19:59N 39°15' W 076°34'0 0.0
2018-Aug-06 19:29N 39°15' W 076°34'0 0.0
2018-Aug-06 18:59N 39°15' W 076°34'0 0.0
2018-Aug-06 18:29N 39°15' W 076°34'0 0.0
2018-Aug-06 17:59N 39°15' W 076°34'0 0.0
2018-Aug-06 17:23N 39°15' W 076°34'0 0.0
2018-Aug-06 16:59N 39°15' W 076°34'0 0.0
2018-Aug-06 16:29N 39°15' W 076°34'0 0.0
2018-Aug-06 15:59N 39°15' W 076°34'  
Track history (hours):
 
Tides and Currents Weather Stations Pressure Air Temp Water Temp Dewpoint Dewpoint Depression Visibility Wind Speed Wind Dir Waves Ship Positions

Bulk Malaysia

Last reported at 2018-Aug-16 15:38 UTC. Time now 2018-Aug-19 22:51 UTC.
Position N 09°11' W 079°52'.

Length 235 m; draft 14.3 m.

Type: Cargo ship. MMSI: 371265000.

Date/timePositionNaut miles runAvg speedWind from/ knotsBaromVisibWave heightAir tempDewpointWater temp
2018-Aug-16 15:38N 09°11' W 079°52'4 8.7
2018-Aug-16 15:14N 09°13' W 079°55'1 6.0
2018-Aug-16 15:00N 09°14' W 079°55'2 3.1
2018-Aug-16 14:28N 09°15' W 079°54'0 0.0
2018-Aug-16 04:08N 09°15' W 079°54'0 1.6
2018-Aug-16 03:50N 09°16' W 079°55'0 1.0
2018-Aug-16 03:29N 09°16' W 079°55'0 0.5
2018-Aug-16 03:00N 09°16' W 079°55'0 0.3
2018-Aug-16 02:30N 09°16' W 079°55'0 0.2
2018-Aug-16 02:00N 09°17' W 079°55'0 0.7
2018-Aug-16 01:27N 09°17' W 079°55'1 2.6
2018-Aug-16 01:00N 09°18' W 079°55'2 4.6
2018-Aug-16 00:30N 09°20' W 079°55'3 6.1
2018-Aug-16 00:01N 09°23' W 079°55'3 5.5
2018-Aug-15 23:30N 09°26' W 079°56'0 0.1
2018-Aug-15 22:58N 09°26' W 079°56'0 0.0
2018-Aug-15 22:28N 09°26' W 079°56'0 0.0
2018-Aug-15 21:58N 09°26' W 079°56'0 0.0
2018-Aug-15 21:28N 09°26' W 079°56'0 0.0
2018-Aug-15 20:58N 09°26' W 079°56'0 0.0
2018-Aug-15 20:28N 09°26' W 079°56'0 0.0
2018-Aug-15 19:55N 09°26' W 079°56'0 0.1
2018-Aug-15 19:28N 09°26' W 079°56'0 0.3
2018-Aug-15 18:59N 09°26' W 079°56'1 1.8
2018-Aug-15 18:30N 09°27' W 079°55'3 4.1
2018-Aug-15 17:54N 09°29' W 079°54'  
2018-Aug-08 14:17N 37°23' W 076°05'4 9.2
2018-Aug-08 13:48N 37°28' W 076°04'4 9.2
2018-Aug-08 13:24N 37°31' W 076°03'6 8.8
2018-Aug-08 12:42N 37°37' W 076°06'2 9.7
2018-Aug-08 12:30N 37°38' W 076°07'5 9.8
2018-Aug-08 12:00N 37°42' W 076°11'510.4
2018-Aug-08 11:30N 37°47' W 076°11'611.4
2018-Aug-08 11:00N 37°53' W 076°10'611.0
2018-Aug-08 10:30N 37°58' W 076°11'611.3
2018-Aug-08 10:00N 38°04' W 076°13'611.8
2018-Aug-08 09:30N 38°09' W 076°14'611.7
2018-Aug-08 09:00N 38°15' W 076°16'611.8
2018-Aug-08 08:30N 38°21' W 076°19'611.6
2018-Aug-08 08:00N 38°26' W 076°22'611.2
2018-Aug-08 07:30N 38°31' W 076°25'510.3
2018-Aug-08 07:00N 38°36' W 076°26'510.5
2018-Aug-08 06:30N 38°41' W 076°25'510.2
2018-Aug-08 06:00N 38°46' W 076°26'510.3
2018-Aug-08 05:30N 38°51' W 076°24'510.1
2018-Aug-08 05:00N 38°56' W 076°23'4 8.3
2018-Aug-08 04:31N 39°01' W 076°23'4 7.8
2018-Aug-08 04:00N 39°04' W 076°24'4 7.9
2018-Aug-08 03:30N 39°08' W 076°24'4 8.1
2018-Aug-08 03:01N 39°11' W 076°28'4 8.0
2018-Aug-08 02:31N 39°13' W 076°32'2 4.6
2018-Aug-08 02:00N 39°15' W 076°34'0 0.5
2018-Aug-08 01:29N 39°15' W 076°34'0 0.0
2018-Aug-08 00:56N 39°15' W 076°34'0 0.0
2018-Aug-08 00:29N 39°15' W 076°34'0 0.0
2018-Aug-07 23:59N 39°15' W 076°34'0 0.0
2018-Aug-07 23:29N 39°15' W 076°34'0 0.0
2018-Aug-07 22:59N 39°15' W 076°34'0 0.0
2018-Aug-07 22:29N 39°15' W 076°34'0 0.0
2018-Aug-07 21:59N 39°15' W 076°34'0 0.0
2018-Aug-07 21:29N 39°15' W 076°34'0 0.0
2018-Aug-07 20:59N 39°15' W 076°34'0 0.0
2018-Aug-07 20:29N 39°15' W 076°34'0 0.0
2018-Aug-07 19:59N 39°15' W 076°34'0 0.0
2018-Aug-07 19:29N 39°15' W 076°34'0 0.0
2018-Aug-07 18:59N 39°15' W 076°34'0 0.0
2018-Aug-07 18:29N 39°15' W 076°34'0 0.0
2018-Aug-07 17:59N 39°15' W 076°34'0 0.0
2018-Aug-07 17:29N 39°15' W 076°34'0 0.0
2018-Aug-07 16:59N 39°15' W 076°34'0 0.0
2018-Aug-07 16:29N 39°15' W 076°34'0 0.0
2018-Aug-07 15:59N 39°15' W 076°34'0 0.0
2018-Aug-07 15:29N 39°15' W 076°34'0 0.0
2018-Aug-07 14:59N 39°15' W 076°34'0 0.0
2018-Aug-07 14:29N 39°15' W 076°34'0 0.0
2018-Aug-07 13:59N 39°15' W 076°34'0 0.0
2018-Aug-07 13:29N 39°15' W 076°34'0 0.0
2018-Aug-07 12:59N 39°15' W 076°34'0 0.0
2018-Aug-07 12:29N 39°15' W 076°34'0 0.0
2018-Aug-07 11:59N 39°15' W 076°34'0 0.0
2018-Aug-07 11:29N 39°15' W 076°34'0 0.0
2018-Aug-07 10:59N 39°15' W 076°34'0 0.0
2018-Aug-07 10:29N 39°15' W 076°34'0 0.0
2018-Aug-07 09:59N 39°15' W 076°34'0 0.0
2018-Aug-07 09:29N 39°15' W 076°34'0 0.0
2018-Aug-07 08:59N 39°15' W 076°34'0 0.0
2018-Aug-07 08:29N 39°15' W 076°34'0 0.0
2018-Aug-07 07:59N 39°15' W 076°34'0 0.0
2018-Aug-07 07:29N 39°15' W 076°34'0 0.0
2018-Aug-07 06:59N 39°15' W 076°34'0 0.0
2018-Aug-07 06:29N 39°15' W 076°34'0 0.0
2018-Aug-07 05:59N 39°15' W 076°34'0 0.0
2018-Aug-07 05:29N 39°15' W 076°34'0 0.0
2018-Aug-07 04:59N 39°15' W 076°34'0 0.0
2018-Aug-07 04:29N 39°15' W 076°34'0 0.0
2018-Aug-07 03:59N 39°15' W 076°34'0 0.0
2018-Aug-07 03:29N 39°15' W 076°34'0 0.0
2018-Aug-07 02:59N 39°15' W 076°34'0 0.0
2018-Aug-07 02:29N 39°15' W 076°34'0 0.0
2018-Aug-07 01:59N 39°15' W 076°34'0 0.0
2018-Aug-07 01:29N 39°15' W 076°34'0 0.0
2018-Aug-07 00:59N 39°15' W 076°34'0 0.0
2018-Aug-07 00:29N 39°15' W 076°34'0 0.0
2018-Aug-06 23:59N 39°15' W 076°34'0 0.0
2018-Aug-06 23:29N 39°15' W 076°34'0 0.0
2018-Aug-06 22:59N 39°15' W 076°34'0 0.0
2018-Aug-06 22:29N 39°15' W 076°34'0 0.0
2018-Aug-06 21:59N 39°15' W 076°34'0 0.0
2018-Aug-06 21:29N 39°15' W 076°34'0 0.0
2018-Aug-06 20:59N 39°15' W 076°34'0 0.0
2018-Aug-06 20:29N 39°15' W 076°34'0 0.0
2018-Aug-06 19:59N 39°15' W 076°34'0 0.0
2018-Aug-06 19:29N 39°15' W 076°34'0 0.0
2018-Aug-06 18:59N 39°15' W 076°34'0 0.0
2018-Aug-06 18:29N 39°15' W 076°34'0 0.0
2018-Aug-06 17:59N 39°15' W 076°34'0 0.0
2018-Aug-06 17:23N 39°15' W 076°34'0 0.0
2018-Aug-06 16:59N 39°15' W 076°34'0 0.0
2018-Aug-06 16:29N 39°15' W 076°34'0 0.0
2018-Aug-06 15:59N 39°15' W 076°34'  

Dump ship's entire track history